createdAt,value
2023-03-31T00:01:35.445Z,10.10
2023-03-31T00:04:12.371Z,10.10
2023-03-31T00:06:41.766Z,10.10
2023-03-31T00:09:25.210Z,10.10
2023-03-31T00:11:52.612Z,10.10
2023-03-31T00:14:27.266Z,10.10
2023-03-31T00:16:56.756Z,10.10
2023-03-31T00:19:31.205Z,10.20
2023-03-31T00:22:08.200Z,10.20
2023-03-31T00:24:35.673Z,10.20
2023-03-31T00:27:12.227Z,10.20
2023-03-31T00:29:41.661Z,10.20
2023-03-31T00:32:16.279Z,10.20
2023-03-31T00:34:51.343Z,10.20
2023-03-31T00:37:18.267Z,10.20
2023-03-31T00:39:52.302Z,10.30
2023-03-31T00:42:21.563Z,10.30
2023-03-31T00:45:30.283Z,10.30
2023-03-31T00:48:03.296Z,10.40
2023-03-31T00:50:42.287Z,10.40
2023-03-31T00:53:14.272Z,10.50
2023-03-31T00:55:52.296Z,10.50
2023-03-31T00:58:40.242Z,10.50
2023-03-31T01:01:07.110Z,10.50
2023-03-31T01:03:49.302Z,10.60
2023-03-31T01:06:19.822Z,10.60
2023-03-31T01:08:56.290Z,10.60
2023-03-31T01:11:27.472Z,10.60
2023-03-31T01:14:03.301Z,10.60
2023-03-31T01:16:30.184Z,10.60
2023-03-31T01:19:04.485Z,10.70
2023-03-31T01:21:53.846Z,10.70
2023-03-31T01:25:08.338Z,10.70
2023-03-31T01:27:58.471Z,10.80
2023-03-31T01:30:59.368Z,10.80
2023-03-31T01:34:00.777Z,10.80
2023-03-31T01:36:43.401Z,10.80
2023-03-31T01:39:25.031Z,10.80
2023-03-31T01:42:45.453Z,10.80
2023-03-31T01:45:30.683Z,10.80
2023-03-31T01:48:10.346Z,10.80
2023-03-31T01:50:56.408Z,10.70
2023-03-31T01:53:44.488Z,10.70
2023-03-31T01:56:25.317Z,10.70
2023-03-31T01:59:08.370Z,10.70
2023-03-31T02:01:47.454Z,10.70
2023-03-31T02:04:29.418Z,10.70
2023-03-31T02:07:10.388Z,10.70
2023-03-31T02:09:41.550Z,10.70
2023-03-31T02:12:18.412Z,10.80
2023-03-31T02:14:54.540Z,10.70
2023-03-31T02:17:36.442Z,10.80
2023-03-31T02:20:11.849Z,10.80
2023-03-31T02:22:52.386Z,10.70
2023-03-31T02:25:23.096Z,10.70
2023-03-31T02:28:07.424Z,10.70
2023-03-31T02:31:04.420Z,10.60
2023-03-31T02:33:31.609Z,10.60
2023-03-31T02:36:06.706Z,10.50
2023-03-31T02:38:44.412Z,10.50
2023-03-31T02:41:11.517Z,10.50
2023-03-31T02:43:44.481Z,10.50
2023-03-31T02:46:11.951Z,10.40
2023-03-31T02:48:54.464Z,10.40
2023-03-31T02:51:38.307Z,10.40
2023-03-31T02:54:43.457Z,10.40
2023-03-31T02:57:34.455Z,10.40
2023-03-31T03:00:19.261Z,10.40
2023-03-31T03:03:27.532Z,10.40
2023-03-31T03:06:07.424Z,10.30
2023-03-31T03:09:14.484Z,10.30
2023-03-31T03:12:06.726Z,10.30
2023-03-31T03:14:43.484Z,10.30
2023-03-31T03:17:39.481Z,10.20
2023-03-31T03:20:15.484Z,10.20
2023-03-31T03:22:49.495Z,10.20
2023-03-31T03:25:20.755Z,10.20
2023-03-31T03:27:54.498Z,10.20
2023-03-31T03:30:28.544Z,10.20
2023-03-31T03:32:56.104Z,10.20
2023-03-31T03:35:29.572Z,10.20
2023-03-31T03:37:56.433Z,10.20
2023-03-31T03:40:23.147Z,10.20
2023-03-31T03:43:00.564Z,10.20
2023-03-31T03:45:27.340Z,10.20
2023-03-31T03:48:00.637Z,10.20
2023-03-31T03:50:27.551Z,10.20
2023-03-31T03:53:01.581Z,10.20
2023-03-31T03:55:28.991Z,10.20
2023-03-31T03:58:03.576Z,10.10
2023-03-31T04:00:31.412Z,10.10
2023-03-31T04:03:04.741Z,10.10
2023-03-31T04:05:31.637Z,10.10
2023-03-31T04:08:04.599Z,10.10
2023-03-31T04:10:31.667Z,10.10
2023-03-31T04:13:04.612Z,10.10
2023-03-31T04:15:37.561Z,10.10
2023-03-31T04:18:13.350Z,10.00
2023-03-31T04:20:48.596Z,10.00
2023-03-31T04:23:15.608Z,10.00
2023-03-31T04:25:52.574Z,10.00
2023-03-31T04:28:26.614Z,10.00
2023-03-31T04:31:01.619Z,10.00
2023-03-31T04:33:35.727Z,10.00
2023-03-31T04:36:07.232Z,10.00
2023-03-31T04:38:40.588Z,10.00
2023-03-31T04:41:14.673Z,10.00
2023-03-31T04:43:41.959Z,10.00
2023-03-31T04:46:15.683Z,10.00
2023-03-31T04:48:47.634Z,10.00
2023-03-31T04:51:22.608Z,10.00
2023-03-31T04:53:49.533Z,10.00
2023-03-31T04:56:16.303Z,10.00
2023-03-31T04:58:52.672Z,10.00
2023-03-31T05:01:19.534Z,10.00
2023-03-31T05:03:56.666Z,10.00
2023-03-31T05:06:28.052Z,10.00
2023-03-31T05:09:01.660Z,10.00
2023-03-31T05:11:35.702Z,10.00
2023-03-31T05:14:02.540Z,10.00
2023-03-31T05:16:35.723Z,10.00
2023-03-31T05:19:03.368Z,10.00
2023-03-31T05:21:37.684Z,10.00
2023-03-31T05:24:11.937Z,10.00
2023-03-31T05:26:46.760Z,10.00
2023-03-31T05:29:19.683Z,10.00
2023-03-31T05:31:47.403Z,10.00
2023-03-31T05:34:21.738Z,10.00
2023-03-31T05:36:50.503Z,10.00
2023-03-31T05:39:23.755Z,10.00
2023-03-31T05:41:50.608Z,10.00
2023-03-31T05:44:23.686Z,10.00
2023-03-31T05:46:50.570Z,10.00
2023-03-31T05:49:23.751Z,10.00
2023-03-31T05:51:58.717Z,10.00
2023-03-31T05:54:26.720Z,10.00
2023-03-31T05:56:54.213Z,10.10
2023-03-31T05:59:27.759Z,10.10
2023-03-31T06:01:54.718Z,10.10
2023-03-31T06:04:28.005Z,10.10
2023-03-31T06:06:55.954Z,10.10
2023-03-31T06:09:22.747Z,10.20
2023-03-31T06:11:55.816Z,10.20
2023-03-31T06:14:23.064Z,10.20
2023-03-31T06:16:49.937Z,10.20
2023-03-31T06:19:23.832Z,10.20
2023-03-31T06:21:51.441Z,10.20
2023-03-31T06:24:24.833Z,10.20
2023-03-31T06:26:53.629Z,10.30
2023-03-31T06:29:27.858Z,10.20
2023-03-31T06:31:58.058Z,10.30
2023-03-31T06:34:31.838Z,10.30
2023-03-31T06:37:08.840Z,10.30
2023-03-31T06:39:35.896Z,10.30
2023-03-31T06:42:02.808Z,10.20
2023-03-31T06:44:42.875Z,10.20
2023-03-31T06:47:20.836Z,10.20
2023-03-31T06:49:47.657Z,10.20
2023-03-31T06:52:21.909Z,10.20
2023-03-31T06:54:48.714Z,10.30
2023-03-31T06:57:28.969Z,10.30
2023-03-31T06:59:55.848Z,10.20
2023-03-31T07:02:29.948Z,10.20
2023-03-31T07:04:56.993Z,10.20
2023-03-31T07:07:38.905Z,10.20
2023-03-31T07:10:06.366Z,10.20
2023-03-31T07:12:40.852Z,10.20
2023-03-31T07:15:08.245Z,10.20
2023-03-31T07:17:43.971Z,10.20
2023-03-31T07:20:12.846Z,10.20
2023-03-31T07:22:47.940Z,10.20
2023-03-31T07:25:17.459Z,10.30
2023-03-31T07:27:50.932Z,10.30
2023-03-31T07:30:25.974Z,10.30
2023-03-31T07:32:58.813Z,10.30
2023-03-31T07:35:32.913Z,10.40
2023-03-31T07:37:59.751Z,10.40
2023-03-31T07:40:28.786Z,10.40
2023-03-31T07:43:01.921Z,10.50
2023-03-31T07:45:28.872Z,10.50
2023-03-31T07:48:01.945Z,10.50
2023-03-31T07:50:34.938Z,10.50
2023-03-31T07:53:05.014Z,10.50
2023-03-31T07:55:31.922Z,10.60
2023-03-31T07:58:06.937Z,10.70
2023-03-31T08:00:33.748Z,10.70
2023-03-31T08:03:00.689Z,10.80
2023-03-31T08:05:40.984Z,10.90
2023-03-31T08:08:13.946Z,11.00
2023-03-31T08:10:40.850Z,11.10
2023-03-31T08:13:08.877Z,11.10
2023-03-31T08:15:42.135Z,11.00
2023-03-31T08:18:10.010Z,10.90
2023-03-31T08:20:50.100Z,10.80
2023-03-31T08:23:16.959Z,10.80
2023-03-31T08:25:44.039Z,10.80
2023-03-31T08:28:20.977Z,10.80
2023-03-31T08:30:48.183Z,10.70
2023-03-31T08:33:24.976Z,10.60
2023-03-31T08:35:58.278Z,10.60
2023-03-31T08:38:25.823Z,10.60
2023-03-31T08:41:05.003Z,10.60
2023-03-31T08:43:37.004Z,10.60
2023-03-31T08:46:12.325Z,10.70
2023-03-31T08:48:48.737Z,10.80
2023-03-31T08:51:31.098Z,10.90
2023-03-31T08:54:13.146Z,10.90
2023-03-31T08:56:51.076Z,10.90
2023-03-31T08:59:26.842Z,10.90
2023-03-31T09:02:22.241Z,10.80
2023-03-31T09:04:57.555Z,10.80
2023-03-31T09:07:52.074Z,10.90
2023-03-31T09:10:55.175Z,10.90
2023-03-31T09:13:42.273Z,11.20
2023-03-31T09:16:22.384Z,11.40
2023-03-31T09:18:50.941Z,11.60
2023-03-31T09:21:45.063Z,11.80
2023-03-31T09:24:28.991Z,12.00
2023-03-31T09:27:08.321Z,12.30
2023-03-31T09:29:54.458Z,12.40
2023-03-31T09:32:39.070Z,12.50
2023-03-31T09:35:32.290Z,12.50
2023-03-31T09:37:59.897Z,12.60
2023-03-31T09:40:28.484Z,12.60
2023-03-31T09:43:36.160Z,12.60
2023-03-31T09:46:09.109Z,12.80
2023-03-31T09:48:55.323Z,12.80
2023-03-31T09:51:30.491Z,12.90
2023-03-31T09:54:12.400Z,13.10
2023-03-31T09:56:42.155Z,13.20
2023-03-31T09:59:25.414Z,13.20
2023-03-31T10:02:02.487Z,13.20
2023-03-31T10:04:39.307Z,13.20
2023-03-31T10:07:06.512Z,13.10
2023-03-31T10:09:38.054Z,13.00
2023-03-31T10:12:22.158Z,13.00
2023-03-31T10:14:51.812Z,13.00
2023-03-31T10:17:21.501Z,13.10
2023-03-31T10:19:56.184Z,13.30
2023-03-31T10:22:29.307Z,13.50
2023-03-31T10:25:15.965Z,13.50
2023-03-31T10:27:54.175Z,13.50
2023-03-31T10:30:35.385Z,13.40
2023-03-31T10:33:24.566Z,13.40
2023-03-31T10:35:59.887Z,13.50
2023-03-31T10:38:49.197Z,13.50
2023-03-31T10:41:31.278Z,13.40
2023-03-31T10:44:49.271Z,13.30
2023-03-31T10:47:30.531Z,13.30
2023-03-31T10:49:58.067Z,13.20
2023-03-31T10:52:27.325Z,13.20
2023-03-31T10:55:07.457Z,13.30
2023-03-31T10:58:00.225Z,13.40
2023-03-31T11:00:32.948Z,13.30
2023-03-31T11:03:45.349Z,13.20
2023-03-31T11:06:21.386Z,13.00
2023-03-31T11:09:23.227Z,12.80
2023-03-31T11:11:52.824Z,12.70
2023-03-31T11:14:40.311Z,12.40
2023-03-31T11:17:31.127Z,12.20
2023-03-31T11:20:17.325Z,11.90
2023-03-31T11:23:13.583Z,11.80
2023-03-31T11:25:45.832Z,11.70
2023-03-31T11:28:22.288Z,11.60
2023-03-31T11:31:13.759Z,11.50
2023-03-31T11:34:07.303Z,11.50
2023-03-31T11:36:37.087Z,11.40
2023-03-31T11:40:00.577Z,11.50
2023-03-31T11:42:38.882Z,11.60
2023-03-31T11:45:23.293Z,11.70
2023-03-31T11:47:55.156Z,11.80
2023-03-31T11:50:45.390Z,12.00
2023-03-31T11:53:17.092Z,12.20
2023-03-31T11:55:54.311Z,12.50
2023-03-31T11:58:30.082Z,12.70
2023-03-31T12:01:12.333Z,12.80
2023-03-31T12:03:57.305Z,12.90
2023-03-31T12:06:37.429Z,12.90
2023-03-31T12:09:55.373Z,12.80
2023-03-31T12:12:30.092Z,12.80
2023-03-31T12:15:27.281Z,12.80
2023-03-31T12:18:22.258Z,12.80
2023-03-31T12:21:04.589Z,12.80
2023-03-31T12:23:37.716Z,12.80
2023-03-31T12:26:39.649Z,12.80
2023-03-31T12:29:34.878Z,12.80
2023-03-31T12:32:18.506Z,12.80
2023-03-31T12:35:12.401Z,12.80
2023-03-31T12:38:09.404Z,12.60
2023-03-31T12:41:03.914Z,12.60
2023-03-31T12:44:09.420Z,12.70
2023-03-31T12:46:55.044Z,12.70
2023-03-31T12:49:47.391Z,12.60
2023-03-31T12:52:18.899Z,12.50
2023-03-31T12:55:09.395Z,12.40
2023-03-31T12:57:38.176Z,12.50
2023-03-31T13:00:29.410Z,12.50
2023-03-31T13:03:57.437Z,12.40
2023-03-31T13:06:30.395Z,12.40
2023-03-31T13:09:11.514Z,12.40
2023-03-31T13:11:44.551Z,12.30
2023-03-31T13:14:27.468Z,12.30
2023-03-31T13:17:14.610Z,12.20
2023-03-31T13:19:48.437Z,12.30
2023-03-31T13:22:37.839Z,12.30
2023-03-31T13:25:36.422Z,12.30
2023-03-31T13:28:21.492Z,12.40
2023-03-31T13:31:11.596Z,12.40
2023-03-31T13:33:58.125Z,12.40
2023-03-31T13:36:40.488Z,12.40
2023-03-31T13:39:29.113Z,12.40
2023-03-31T13:42:31.457Z,12.50
2023-03-31T13:45:17.775Z,12.60
2023-03-31T13:47:47.728Z,12.70
2023-03-31T13:50:26.500Z,12.70
2023-03-31T13:53:16.791Z,12.80
2023-03-31T13:56:09.265Z,12.70
2023-03-31T13:58:51.766Z,12.70
2023-03-31T14:01:56.084Z,12.60
2023-03-31T14:04:44.779Z,12.40
2023-03-31T14:07:18.238Z,12.40
2023-03-31T14:09:58.499Z,12.30
2023-03-31T14:12:42.506Z,12.20
2023-03-31T14:15:21.623Z,12.10
2023-03-31T14:18:01.548Z,12.00
2023-03-31T14:21:24.509Z,12.00
2023-03-31T14:24:24.988Z,12.00
2023-03-31T14:27:08.688Z,12.10
2023-03-31T14:29:51.491Z,12.20
2023-03-31T14:32:55.952Z,12.20
2023-03-31T14:35:38.833Z,12.10
2023-03-31T14:38:18.574Z,12.10
2023-03-31T14:40:51.115Z,12.00
2023-03-31T14:43:30.743Z,12.00
2023-03-31T14:46:08.880Z,11.90
2023-03-31T14:48:53.712Z,11.90
2023-03-31T14:51:31.041Z,11.90
2023-03-31T14:54:08.630Z,11.80
2023-03-31T14:56:45.626Z,11.70
2023-03-31T14:59:18.014Z,11.60
2023-03-31T15:01:54.690Z,11.60
2023-03-31T15:04:31.985Z,11.60
2023-03-31T15:07:11.642Z,11.60
2023-03-31T15:09:38.879Z,11.60
2023-03-31T15:12:18.672Z,11.60
2023-03-31T15:14:57.631Z,11.60
2023-03-31T15:17:34.622Z,11.50
2023-03-31T15:20:26.624Z,11.50
2023-03-31T15:22:56.804Z,11.40
2023-03-31T15:25:49.662Z,11.30
2023-03-31T15:28:24.626Z,11.30
2023-03-31T15:30:56.934Z,11.30
2023-03-31T15:33:42.694Z,11.30
2023-03-31T15:36:11.890Z,11.30
2023-03-31T15:38:51.673Z,11.30
2023-03-31T15:44:33.652Z,11.10
2023-03-31T15:47:28.742Z,11.10
2023-03-31T15:50:02.951Z,11.10
2023-03-31T15:52:43.803Z,11.00
2023-03-31T15:55:30.926Z,11.00
2023-03-31T15:58:07.846Z,10.90
2023-03-31T16:00:34.642Z,10.90
2023-03-31T16:03:04.441Z,10.90
2023-03-31T16:08:33.378Z,10.80
2023-03-31T16:11:20.992Z,10.80
2023-03-31T16:13:53.118Z,10.80
2023-03-31T16:16:29.991Z,10.80
2023-03-31T16:19:10.234Z,10.80
2023-03-31T16:21:59.758Z,10.90
2023-03-31T16:24:32.572Z,10.90
2023-03-31T16:27:12.775Z,11.00
2023-03-31T16:29:39.597Z,11.00
2023-03-31T16:32:21.707Z,11.00
2023-03-31T16:34:56.823Z,11.00
2023-03-31T16:37:31.038Z,11.00
2023-03-31T16:39:58.301Z,11.00
2023-03-31T16:42:28.978Z,11.00
2023-03-31T16:45:13.541Z,11.00
2023-03-31T16:50:34.784Z,10.90
2023-03-31T16:53:08.968Z,10.80
2023-03-31T16:55:42.803Z,10.80
2023-03-31T16:58:10.475Z,10.70
2023-03-31T17:00:37.398Z,10.70
2023-03-31T17:03:15.046Z,10.60
2023-03-31T17:05:52.765Z,10.60
2023-03-31T17:08:28.863Z,10.50
2023-03-31T17:11:03.650Z,10.60
2023-03-31T17:13:38.834Z,10.60
2023-03-31T17:16:17.565Z,10.60
2023-03-31T17:18:55.856Z,10.60
2023-03-31T17:21:23.675Z,10.50
2023-03-31T17:23:56.924Z,10.60
2023-03-31T17:26:23.920Z,10.50
2023-03-31T17:28:50.684Z,10.50
2023-03-31T17:31:27.859Z,10.50
2023-03-31T17:33:55.668Z,10.40
2023-03-31T17:36:22.574Z,10.40
2023-03-31T17:38:55.831Z,10.40
2023-03-31T17:41:30.165Z,10.40
2023-03-31T17:43:57.508Z,10.40
2023-03-31T17:46:24.515Z,10.30
2023-03-31T17:48:59.900Z,10.30
2023-03-31T17:51:33.878Z,10.30
2023-03-31T17:54:06.975Z,10.30
2023-03-31T17:56:34.684Z,10.30
2023-03-31T17:59:01.826Z,10.30
2023-03-31T18:01:34.985Z,10.30
2023-03-31T18:04:02.191Z,10.30
2023-03-31T18:06:29.297Z,10.30
2023-03-31T18:09:03.924Z,10.30
2023-03-31T18:11:31.133Z,10.30
2023-03-31T18:14:00.158Z,10.30
2023-03-31T18:16:34.287Z,10.20
2023-03-31T18:19:01.761Z,10.30
2023-03-31T18:21:28.912Z,10.20
2023-03-31T18:24:02.296Z,10.20
2023-03-31T18:26:29.189Z,10.20
2023-03-31T18:28:56.072Z,10.20
2023-03-31T18:31:31.325Z,10.20
2023-03-31T18:33:58.366Z,10.20
2023-03-31T18:36:25.680Z,10.20
2023-03-31T18:39:00.084Z,10.20
2023-03-31T18:41:26.948Z,10.20
2023-03-31T18:43:54.505Z,10.20
2023-03-31T18:46:27.991Z,10.10
2023-03-31T18:48:54.948Z,10.20
2023-03-31T18:51:29.221Z,10.10
2023-03-31T18:53:56.006Z,10.10
2023-03-31T18:56:23.177Z,10.10
2023-03-31T18:58:57.316Z,10.20
2023-03-31T19:01:32.484Z,10.10
2023-03-31T19:04:06.116Z,10.10
2023-03-31T19:06:33.353Z,10.10
2023-03-31T19:09:01.146Z,10.10
2023-03-31T19:11:35.123Z,10.10
2023-03-31T19:14:02.038Z,10.10
2023-03-31T19:16:29.147Z,10.10
2023-03-31T19:19:03.007Z,10.10
2023-03-31T19:21:33.213Z,10.10
2023-03-31T19:24:00.130Z,10.00
2023-03-31T19:26:34.023Z,10.00
2023-03-31T19:29:00.930Z,10.00
2023-03-31T19:31:34.022Z,10.00
2023-03-31T19:34:08.153Z,10.00
2023-03-31T19:36:35.434Z,10.10
2023-03-31T19:39:03.847Z,10.10
2023-03-31T19:41:37.045Z,10.10
2023-03-31T19:44:03.899Z,10.10
2023-03-31T19:46:31.058Z,10.00
2023-03-31T19:49:05.022Z,10.00
2023-03-31T19:51:38.074Z,10.00
2023-03-31T19:54:05.063Z,10.00
2023-03-31T19:56:39.092Z,10.00
2023-03-31T19:59:06.252Z,10.00
2023-03-31T20:01:33.544Z,10.00
2023-03-31T20:04:07.128Z,10.00
2023-03-31T20:06:34.776Z,10.00
2023-03-31T20:09:10.115Z,10.00
2023-03-31T20:11:37.372Z,10.00
2023-03-31T20:14:11.156Z,10.00
2023-03-31T20:16:38.194Z,10.00
2023-03-31T20:19:13.184Z,10.00
2023-03-31T20:21:41.016Z,10.00
2023-03-31T20:24:16.125Z,10.00
2023-03-31T20:26:43.710Z,10.00
2023-03-31T20:29:18.146Z,10.00
2023-03-31T20:31:45.188Z,10.00
2023-03-31T20:34:24.088Z,9.90
2023-03-31T20:37:01.100Z,10.00
2023-03-31T20:39:35.153Z,9.90
2023-03-31T20:42:02.022Z,9.90
2023-03-31T20:44:35.098Z,9.90
2023-03-31T20:47:07.408Z,9.90
2023-03-31T20:49:41.169Z,9.90
2023-03-31T20:52:07.952Z,9.90
2023-03-31T20:54:41.162Z,9.90
2023-03-31T20:57:11.580Z,9.90
2023-03-31T20:59:46.187Z,9.90
2023-03-31T21:02:21.201Z,9.90
2023-03-31T21:04:54.262Z,9.90
2023-03-31T21:07:21.384Z,9.90
2023-03-31T21:09:55.184Z,9.90
2023-03-31T21:12:26.002Z,9.90
2023-03-31T21:14:59.197Z,9.90
2023-03-31T21:17:33.219Z,9.80
2023-03-31T21:20:00.034Z,9.90
2023-03-31T21:22:39.254Z,9.90
2023-03-31T21:25:14.205Z,9.90
2023-03-31T21:27:41.820Z,9.90
2023-03-31T21:30:17.248Z,9.90
2023-03-31T21:32:52.256Z,9.90
2023-03-31T21:35:19.308Z,9.80
2023-03-31T21:37:52.195Z,9.90
2023-03-31T21:40:18.976Z,9.90
2023-03-31T21:42:52.246Z,9.90
2023-03-31T21:45:25.291Z,9.80
2023-03-31T21:47:59.311Z,9.90
2023-03-31T21:50:26.085Z,9.90
2023-03-31T21:53:00.236Z,9.90
2023-03-31T21:55:34.255Z,9.80
2023-03-31T21:58:02.222Z,9.80
2023-03-31T22:00:35.295Z,9.80
2023-03-31T22:03:25.779Z,9.80
2023-03-31T22:06:16.231Z,9.80
2023-03-31T22:08:49.384Z,9.80
2023-03-31T22:11:16.733Z,9.80
2023-03-31T22:13:50.349Z,9.80
2023-03-31T22:16:28.308Z,9.80
2023-03-31T22:19:02.255Z,9.80
2023-03-31T22:21:29.151Z,9.80
2023-03-31T22:24:05.302Z,9.80
2023-03-31T22:26:32.807Z,9.80
2023-03-31T22:29:06.421Z,9.80
2023-03-31T22:31:40.281Z,9.80
2023-03-31T22:34:19.314Z,9.80
2023-03-31T22:36:47.136Z,9.80
2023-03-31T22:39:22.340Z,9.80
2023-03-31T22:42:01.342Z,9.80
2023-03-31T22:44:34.299Z,9.80
2023-03-31T22:47:01.641Z,9.80
2023-03-31T22:49:28.630Z,9.80
2023-03-31T22:52:02.389Z,9.80
2023-03-31T22:54:29.171Z,9.80
2023-03-31T22:57:05.472Z,9.80
2023-03-31T22:59:32.848Z,9.80
2023-03-31T23:01:59.946Z,9.80
2023-03-31T23:04:35.321Z,9.80
2023-03-31T23:07:08.154Z,9.80
2023-03-31T23:09:41.380Z,9.90
2023-03-31T23:12:16.485Z,9.90
2023-03-31T23:14:50.458Z,9.90
2023-03-31T23:17:21.028Z,9.80
2023-03-31T23:19:55.416Z,9.90
2023-03-31T23:22:25.411Z,9.90
2023-03-31T23:24:59.365Z,9.90
2023-03-31T23:27:26.129Z,9.90
2023-03-31T23:29:59.413Z,9.90
2023-03-31T23:32:33.390Z,9.90
2023-03-31T23:35:00.267Z,9.90
2023-03-31T23:37:34.400Z,9.90
2023-03-31T23:40:01.907Z,9.80
2023-03-31T23:42:39.406Z,9.90
2023-03-31T23:45:13.642Z,9.90
2023-03-31T23:47:45.769Z,9.90
2023-03-31T23:50:12.677Z,9.80
2023-03-31T23:52:46.395Z,9.80
2023-03-31T23:55:20.514Z,9.80
2023-03-31T23:58:02.402Z,9.80
